sensor_id;sensor_type;location;lat;lon;timestamp;P1;durP1;ratioP1;P2;durP2;ratioP2
19002;SDS011;9634;51.040;13.794;2022-12-18T00:04:46;55.23;;;22.20;;
19002;SDS011;9634;51.040;13.794;2022-12-18T00:09:49;52.00;;;20.97;;
19002;SDS011;9634;51.040;13.794;2022-12-18T00:14:51;49.40;;;20.40;;
19002;SDS011;9634;51.040;13.794;2022-12-18T00:19:54;60.67;;;22.93;;
19002;SDS011;9634;51.040;13.794;2022-12-18T00:24:57;48.23;;;20.00;;
19002;SDS011;9634;51.040;13.794;2022-12-18T00:30:00;48.53;;;19.50;;
19002;SDS011;9634;51.040;13.794;2022-12-18T00:35:02;56.40;;;20.37;;
19002;SDS011;9634;51.040;13.794;2022-12-18T00:40:07;47.67;;;19.50;;
19002;SDS011;9634;51.040;13.794;2022-12-18T00:45:11;45.50;;;17.77;;
19002;SDS011;9634;51.040;13.794;2022-12-18T00:50:13;48.53;;;19.53;;
19002;SDS011;9634;51.040;13.794;2022-12-18T00:55:17;53.67;;;19.47;;
19002;SDS011;9634;51.040;13.794;2022-12-18T01:00:21;42.57;;;17.10;;
19002;SDS011;9634;51.040;13.794;2022-12-18T01:05:23;39.13;;;16.03;;
19002;SDS011;9634;51.040;13.794;2022-12-18T01:10:28;35.20;;;15.13;;
19002;SDS011;9634;51.040;13.794;2022-12-18T01:15:31;41.63;;;16.00;;
19002;SDS011;9634;51.040;13.794;2022-12-18T01:20:33;37.33;;;16.43;;
19002;SDS011;9634;51.040;13.794;2022-12-18T01:25:37;38.30;;;16.90;;
19002;SDS011;9634;51.040;13.794;2022-12-18T01:30:43;38.53;;;15.40;;
19002;SDS011;9634;51.040;13.794;2022-12-18T01:35:46;39.80;;;14.30;;
19002;SDS011;9634;51.040;13.794;2022-12-18T01:40:50;31.00;;;13.73;;
19002;SDS011;9634;51.040;13.794;2022-12-18T01:45:59;38.43;;;14.23;;
19002;SDS011;9634;51.040;13.794;2022-12-18T01:51:01;46.97;;;14.27;;
19002;SDS011;9634;51.040;13.794;2022-12-18T01:56:06;34.13;;;12.27;;
19002;SDS011;9634;51.040;13.794;2022-12-18T02:01:10;26.80;;;11.57;;
19002;SDS011;9634;51.040;13.794;2022-12-18T02:06:16;28.03;;;11.23;;
19002;SDS011;9634;51.040;13.794;2022-12-18T02:11:28;26.33;;;10.20;;
19002;SDS011;9634;51.040;13.794;2022-12-18T02:16:39;28.53;;;12.00;;
19002;SDS011;9634;51.040;13.794;2022-12-18T02:21:49;32.87;;;9.83;;
19002;SDS011;9634;51.040;13.794;2022-12-18T02:26:59;25.67;;;10.63;;
19002;SDS011;9634;51.040;13.794;2022-12-18T02:32:06;23.67;;;9.33;;
19002;SDS011;9634;51.040;13.794;2022-12-18T02:37:12;26.00;;;11.23;;
19002;SDS011;9634;51.040;13.794;2022-12-18T02:42:19;28.37;;;11.47;;
19002;SDS011;9634;51.040;13.794;2022-12-18T02:47:23;26.47;;;10.60;;
19002;SDS011;9634;51.040;13.794;2022-12-18T02:52:31;29.07;;;10.83;;
19002;SDS011;9634;51.040;13.794;2022-12-18T02:57:44;32.70;;;11.00;;
19002;SDS011;9634;51.040;13.794;2022-12-18T03:02:53;24.40;;;9.73;;
19002;SDS011;9634;51.040;13.794;2022-12-18T03:08:03;25.73;;;10.87;;
19002;SDS011;9634;51.040;13.794;2022-12-18T03:13:13;21.30;;;9.73;;
19002;SDS011;9634;51.040;13.794;2022-12-18T03:18:22;17.37;;;8.10;;
19002;SDS011;9634;51.040;13.794;2022-12-18T03:23:29;21.07;;;8.30;;
19002;SDS011;9634;51.040;13.794;2022-12-18T03:28:38;18.67;;;8.23;;
19002;SDS011;9634;51.040;13.794;2022-12-18T03:33:45;17.67;;;8.13;;
19002;SDS011;9634;51.040;13.794;2022-12-18T03:38:49;23.27;;;8.37;;
19002;SDS011;9634;51.040;13.794;2022-12-18T03:43:54;23.50;;;7.40;;
19002;SDS011;9634;51.040;13.794;2022-12-18T03:49:06;19.33;;;8.00;;
19002;SDS011;9634;51.040;13.794;2022-12-18T03:54:14;21.13;;;7.50;;
19002;SDS011;9634;51.040;13.794;2022-12-18T03:59:27;23.37;;;7.47;;
19002;SDS011;9634;51.040;13.794;2022-12-18T04:04:32;17.07;;;6.97;;
19002;SDS011;9634;51.040;13.794;2022-12-18T04:09:38;19.13;;;7.07;;
19002;SDS011;9634;51.040;13.794;2022-12-18T04:14:44;23.80;;;7.87;;
19002;SDS011;9634;51.040;13.794;2022-12-18T04:19:47;14.47;;;6.60;;
19002;SDS011;9634;51.040;13.794;2022-12-18T04:24:51;17.13;;;6.67;;
19002;SDS011;9634;51.040;13.794;2022-12-18T04:30:04;15.17;;;6.67;;
19002;SDS011;9634;51.040;13.794;2022-12-18T04:35:07;17.57;;;7.30;;
19002;SDS011;9634;51.040;13.794;2022-12-18T04:40:12;19.23;;;7.67;;
19002;SDS011;9634;51.040;13.794;2022-12-18T04:45:20;17.53;;;6.93;;
19002;SDS011;9634;51.040;13.794;2022-12-18T04:50:22;16.00;;;6.97;;
19002;SDS011;9634;51.040;13.794;2022-12-18T04:55:25;19.03;;;6.47;;
19002;SDS011;9634;51.040;13.794;2022-12-18T05:00:29;16.60;;;7.20;;
19002;SDS011;9634;51.040;13.794;2022-12-18T05:05:31;17.97;;;6.70;;
19002;SDS011;9634;51.040;13.794;2022-12-18T05:10:35;17.63;;;7.03;;
19002;SDS011;9634;51.040;13.794;2022-12-18T05:15:39;13.93;;;5.80;;
19002;SDS011;9634;51.040;13.794;2022-12-18T05:20:41;14.73;;;5.67;;
19002;SDS011;9634;51.040;13.794;2022-12-18T05:25:46;17.53;;;5.80;;
19002;SDS011;9634;51.040;13.794;2022-12-18T05:30:56;16.20;;;6.53;;
19002;SDS011;9634;51.040;13.794;2022-12-18T05:36:00;14.63;;;6.40;;
19002;SDS011;9634;51.040;13.794;2022-12-18T05:41:03;15.73;;;6.60;;
19002;SDS011;9634;51.040;13.794;2022-12-18T05:46:08;15.40;;;6.40;;
19002;SDS011;9634;51.040;13.794;2022-12-18T05:51:14;14.37;;;6.20;;
19002;SDS011;9634;51.040;13.794;2022-12-18T05:56:18;17.00;;;6.27;;
19002;SDS011;9634;51.040;13.794;2022-12-18T06:01:25;19.10;;;6.50;;
19002;SDS011;9634;51.040;13.794;2022-12-18T06:06:28;15.83;;;6.17;;
19002;SDS011;9634;51.040;13.794;2022-12-18T06:11:30;15.23;;;5.90;;
19002;SDS011;9634;51.040;13.794;2022-12-18T06:16:34;12.43;;;6.37;;
19002;SDS011;9634;51.040;13.794;2022-12-18T06:21:36;15.40;;;6.43;;
19002;SDS011;9634;51.040;13.794;2022-12-18T06:26:38;17.30;;;6.60;;
19002;SDS011;9634;51.040;13.794;2022-12-18T06:31:42;13.13;;;6.03;;
19002;SDS011;9634;51.040;13.794;2022-12-18T06:36:44;17.60;;;7.30;;
19002;SDS011;9634;51.040;13.794;2022-12-18T06:41:46;14.53;;;6.30;;
19002;SDS011;9634;51.040;13.794;2022-12-18T06:46:50;15.73;;;6.83;;
19002;SDS011;9634;51.040;13.794;2022-12-18T06:51:52;16.50;;;7.07;;
19002;SDS011;9634;51.040;13.794;2022-12-18T06:56:54;17.87;;;6.90;;
19002;SDS011;9634;51.040;13.794;2022-12-18T07:01:59;16.83;;;7.33;;
19002;SDS011;9634;51.040;13.794;2022-12-18T07:07:01;15.77;;;6.60;;
19002;SDS011;9634;51.040;13.794;2022-12-18T07:12:03;16.83;;;6.87;;
19002;SDS011;9634;51.040;13.794;2022-12-18T07:17:08;19.67;;;7.30;;
19002;SDS011;9634;51.040;13.794;2022-12-18T07:22:10;20.53;;;7.63;;
19002;SDS011;9634;51.040;13.794;2022-12-18T07:27:12;21.00;;;6.90;;
19002;SDS011;9634;51.040;13.794;2022-12-18T07:32:16;23.53;;;9.20;;
19002;SDS011;9634;51.040;13.794;2022-12-18T07:37:18;19.40;;;7.93;;
19002;SDS011;9634;51.040;13.794;2022-12-18T07:42:20;28.07;;;10.20;;
19002;SDS011;9634;51.040;13.794;2022-12-18T07:47:34;27.57;;;10.47;;
19002;SDS011;9634;51.040;13.794;2022-12-18T07:52:37;27.40;;;10.37;;
19002;SDS011;9634;51.040;13.794;2022-12-18T07:57:39;25.13;;;9.30;;
19002;SDS011;9634;51.040;13.794;2022-12-18T08:02:43;20.53;;;8.63;;
19002;SDS011;9634;51.040;13.794;2022-12-18T08:07:45;25.07;;;10.63;;
19002;SDS011;9634;51.040;13.794;2022-12-18T08:12:48;22.10;;;10.13;;
19002;SDS011;9634;51.040;13.794;2022-12-18T08:17:54;24.83;;;10.73;;
19002;SDS011;9634;51.040;13.794;2022-12-18T08:22:57;24.53;;;10.03;;
19002;SDS011;9634;51.040;13.794;2022-12-18T08:28:00;24.20;;;9.90;;
19002;SDS011;9634;51.040;13.794;2022-12-18T08:33:03;20.97;;;10.33;;
19002;SDS011;9634;51.040;13.794;2022-12-18T08:38:06;30.97;;;12.43;;
19002;SDS011;9634;51.040;13.794;2022-12-18T08:43:09;26.70;;;11.63;;
19002;SDS011;9634;51.040;13.794;2022-12-18T08:48:31;25.43;;;11.70;;
19002;SDS011;9634;51.040;13.794;2022-12-18T08:53:33;32.77;;;12.73;;
19002;SDS011;9634;51.040;13.794;2022-12-18T08:58:35;27.77;;;12.13;;
19002;SDS011;9634;51.040;13.794;2022-12-18T09:03:42;26.30;;;12.03;;
19002;SDS011;9634;51.040;13.794;2022-12-18T09:08:47;29.10;;;13.23;;
19002;SDS011;9634;51.040;13.794;2022-12-18T09:13:50;28.53;;;12.80;;
19002;SDS011;9634;51.040;13.794;2022-12-18T09:18:54;29.20;;;12.00;;
19002;SDS011;9634;51.040;13.794;2022-12-18T09:23:59;28.73;;;12.17;;
19002;SDS011;9634;51.040;13.794;2022-12-18T09:29:02;28.17;;;12.43;;
19002;SDS011;9634;51.040;13.794;2022-12-18T09:34:05;37.30;;;12.83;;
19002;SDS011;9634;51.040;13.794;2022-12-18T09:39:08;36.60;;;14.27;;
19002;SDS011;9634;51.040;13.794;2022-12-18T09:44:12;31.67;;;12.63;;
19002;SDS011;9634;51.040;13.794;2022-12-18T09:49:21;29.40;;;13.00;;
19002;SDS011;9634;51.040;13.794;2022-12-18T09:54:30;29.27;;;12.00;;
19002;SDS011;9634;51.040;13.794;2022-12-18T09:59:37;35.00;;;13.60;;
19002;SDS011;9634;51.040;13.794;2022-12-18T10:04:42;30.43;;;12.90;;
19002;SDS011;9634;51.040;13.794;2022-12-18T10:09:46;27.90;;;13.27;;
19002;SDS011;9634;51.040;13.794;2022-12-18T10:14:57;30.63;;;13.77;;
19002;SDS011;9634;51.040;13.794;2022-12-18T10:20:09;28.93;;;12.07;;
19002;SDS011;9634;51.040;13.794;2022-12-18T10:25:16;33.00;;;13.87;;
19002;SDS011;9634;51.040;13.794;2022-12-18T10:30:23;30.70;;;12.90;;
19002;SDS011;9634;51.040;13.794;2022-12-18T10:35:28;31.50;;;12.93;;
19002;SDS011;9634;51.040;13.794;2022-12-18T10:40:31;35.03;;;14.10;;
19002;SDS011;9634;51.040;13.794;2022-12-18T10:45:33;31.33;;;14.27;;
19002;SDS011;9634;51.040;13.794;2022-12-18T10:50:37;32.27;;;13.30;;
19002;SDS011;9634;51.040;13.794;2022-12-18T10:55:39;32.85;;;16.35;;
19002;SDS011;9634;51.040;13.794;2022-12-18T11:00:49;30.10;;;13.47;;
19002;SDS011;9634;51.040;13.794;2022-12-18T11:06:10;32.93;;;14.33;;
19002;SDS011;9634;51.040;13.794;2022-12-18T11:11:18;29.87;;;13.93;;
19002;SDS011;9634;51.040;13.794;2022-12-18T11:16:22;29.23;;;13.13;;
19002;SDS011;9634;51.040;13.794;2022-12-18T11:21:26;29.70;;;13.27;;
19002;SDS011;9634;51.040;13.794;2022-12-18T11:26:33;37.10;;;15.03;;
19002;SDS011;9634;51.040;13.794;2022-12-18T11:31:39;32.03;;;14.60;;
19002;SDS011;9634;51.040;13.794;2022-12-18T11:36:44;27.93;;;13.33;;
19002;SDS011;9634;51.040;13.794;2022-12-18T11:41:48;29.93;;;14.47;;
19002;SDS011;9634;51.040;13.794;2022-12-18T11:47:15;30.33;;;16.50;;
19002;SDS011;9634;51.040;13.794;2022-12-18T11:52:30;31.77;;;15.20;;
19002;SDS011;9634;51.040;13.794;2022-12-18T11:57:38;32.03;;;14.50;;
19002;SDS011;9634;51.040;13.794;2022-12-18T12:03:00;28.23;;;13.63;;
19002;SDS011;9634;51.040;13.794;2022-12-18T12:08:22;28.97;;;14.90;;
19002;SDS011;9634;51.040;13.794;2022-12-18T12:13:40;27.27;;;13.80;;
19002;SDS011;9634;51.040;13.794;2022-12-18T12:19:02;31.07;;;13.97;;
19002;SDS011;9634;51.040;13.794;2022-12-18T12:24:30;30.10;;;13.90;;
19002;SDS011;9634;51.040;13.794;2022-12-18T12:29:44;30.47;;;13.63;;
19002;SDS011;9634;51.040;13.794;2022-12-18T12:34:54;33.00;;;14.37;;
19002;SDS011;9634;51.040;13.794;2022-12-18T12:40:12;24.87;;;12.73;;
19002;SDS011;9634;51.040;13.794;2022-12-18T12:45:23;25.47;;;12.73;;
19002;SDS011;9634;51.040;13.794;2022-12-18T12:50:30;26.30;;;12.90;;
19002;SDS011;9634;51.040;13.794;2022-12-18T12:55:38;27.17;;;12.93;;
19002;SDS011;9634;51.040;13.794;2022-12-18T13:00:45;32.83;;;13.37;;
19002;SDS011;9634;51.040;13.794;2022-12-18T13:05:56;29.40;;;13.70;;
19002;SDS011;9634;51.040;13.794;2022-12-18T13:11:09;32.37;;;14.13;;
19002;SDS011;9634;51.040;13.794;2022-12-18T13:16:46;31.17;;;13.93;;
19002;SDS011;9634;51.040;13.794;2022-12-18T13:21:52;33.43;;;14.13;;
19002;SDS011;9634;51.040;13.794;2022-12-18T13:26:57;30.57;;;13.73;;
19002;SDS011;9634;51.040;13.794;2022-12-18T13:32:00;32.93;;;13.83;;
19002;SDS011;9634;51.040;13.794;2022-12-18T13:42:44;34.43;;;13.47;;
19002;SDS011;9634;51.040;13.794;2022-12-18T13:48:05;31.03;;;12.40;;
19002;SDS011;9634;51.040;13.794;2022-12-18T13:53:16;25.20;;;11.70;;
19002;SDS011;9634;51.040;13.794;2022-12-18T13:58:24;26.63;;;11.47;;
19002;SDS011;9634;51.040;13.794;2022-12-18T14:03:27;21.23;;;9.80;;
19002;SDS011;9634;51.040;13.794;2022-12-18T14:08:33;24.53;;;10.60;;
19002;SDS011;9634;51.040;13.794;2022-12-18T14:13:41;22.40;;;9.27;;
19002;SDS011;9634;51.040;13.794;2022-12-18T14:18:44;25.47;;;9.87;;
19002;SDS011;9634;51.040;13.794;2022-12-18T14:23:49;26.17;;;11.13;;
19002;SDS011;9634;51.040;13.794;2022-12-18T14:29:19;26.73;;;9.87;;
19002;SDS011;9634;51.040;13.794;2022-12-18T14:34:25;25.70;;;9.87;;
19002;SDS011;9634;51.040;13.794;2022-12-18T14:39:28;29.33;;;10.53;;
19002;SDS011;9634;51.040;13.794;2022-12-18T14:44:31;27.07;;;10.53;;
19002;SDS011;9634;51.040;13.794;2022-12-18T14:49:34;26.60;;;10.63;;
19002;SDS011;9634;51.040;13.794;2022-12-18T14:54:37;25.73;;;10.50;;
19002;SDS011;9634;51.040;13.794;2022-12-18T14:59:40;24.87;;;10.37;;
19002;SDS011;9634;51.040;13.794;2022-12-18T15:04:43;28.63;;;11.20;;
19002;SDS011;9634;51.040;13.794;2022-12-18T15:10:00;26.17;;;10.80;;
19002;SDS011;9634;51.040;13.794;2022-12-18T15:20:49;20.93;;;8.93;;
19002;SDS011;9634;51.040;13.794;2022-12-18T15:25:56;28.97;;;11.70;;
19002;SDS011;9634;51.040;13.794;2022-12-18T15:31:19;28.27;;;10.90;;
19002;SDS011;9634;51.040;13.794;2022-12-18T15:36:24;29.40;;;10.13;;
19002;SDS011;9634;51.040;13.794;2022-12-18T15:41:31;32.57;;;10.93;;
19002;SDS011;9634;51.040;13.794;2022-12-18T15:46:36;29.93;;;10.40;;
19002;SDS011;9634;51.040;13.794;2022-12-18T15:51:38;24.07;;;10.70;;
19002;SDS011;9634;51.040;13.794;2022-12-18T15:56:40;35.23;;;11.87;;
19002;SDS011;9634;51.040;13.794;2022-12-18T16:02:01;36.33;;;11.23;;
19002;SDS011;9634;51.040;13.794;2022-12-18T16:07:03;31.30;;;12.23;;
19002;SDS011;9634;51.040;13.794;2022-12-18T16:12:06;34.77;;;13.10;;
19002;SDS011;9634;51.040;13.794;2022-12-18T16:17:18;41.57;;;13.00;;
19002;SDS011;9634;51.040;13.794;2022-12-18T16:22:21;23.53;;;10.43;;
19002;SDS011;9634;51.040;13.794;2022-12-18T16:27:26;31.00;;;11.83;;
19002;SDS011;9634;51.040;13.794;2022-12-18T16:32:30;30.47;;;12.17;;
19002;SDS011;9634;51.040;13.794;2022-12-18T16:37:32;30.60;;;11.80;;
19002;SDS011;9634;51.040;13.794;2022-12-18T16:42:35;30.50;;;11.33;;
19002;SDS011;9634;51.040;13.794;2022-12-18T16:47:38;32.77;;;11.87;;
19002;SDS011;9634;51.040;13.794;2022-12-18T16:52:41;35.07;;;12.40;;
19002;SDS011;9634;51.040;13.794;2022-12-18T16:57:43;26.90;;;11.10;;
19002;SDS011;9634;51.040;13.794;2022-12-18T17:02:47;33.27;;;12.47;;
19002;SDS011;9634;51.040;13.794;2022-12-18T17:07:49;31.37;;;11.47;;
19002;SDS011;9634;51.040;13.794;2022-12-18T17:12:51;30.33;;;11.43;;
19002;SDS011;9634;51.040;13.794;2022-12-18T17:17:55;33.20;;;13.10;;
19002;SDS011;9634;51.040;13.794;2022-12-18T17:22:57;36.67;;;12.87;;
19002;SDS011;9634;51.040;13.794;2022-12-18T17:27:59;27.63;;;12.07;;
19002;SDS011;9634;51.040;13.794;2022-12-18T17:33:03;31.97;;;12.63;;
19002;SDS011;9634;51.040;13.794;2022-12-18T17:38:05;31.73;;;12.00;;
19002;SDS011;9634;51.040;13.794;2022-12-18T17:43:08;29.90;;;11.60;;
19002;SDS011;9634;51.040;13.794;2022-12-18T17:48:13;31.33;;;11.77;;
19002;SDS011;9634;51.040;13.794;2022-12-18T17:53:15;33.23;;;12.27;;
19002;SDS011;9634;51.040;13.794;2022-12-18T17:58:17;34.40;;;12.03;;
19002;SDS011;9634;51.040;13.794;2022-12-18T18:03:21;30.73;;;11.77;;
19002;SDS011;9634;51.040;13.794;2022-12-18T18:08:23;24.73;;;10.90;;
19002;SDS011;9634;51.040;13.794;2022-12-18T18:13:26;23.37;;;10.23;;
19002;SDS011;9634;51.040;13.794;2022-12-18T18:18:47;35.80;;;12.10;;
19002;SDS011;9634;51.040;13.794;2022-12-18T18:23:49;27.63;;;11.80;;
19002;SDS011;9634;51.040;13.794;2022-12-18T18:28:52;32.13;;;11.47;;
19002;SDS011;9634;51.040;13.794;2022-12-18T18:33:56;28.50;;;10.50;;
19002;SDS011;9634;51.040;13.794;2022-12-18T18:38:58;27.67;;;10.20;;
19002;SDS011;9634;51.040;13.794;2022-12-18T18:44:00;28.83;;;11.13;;
19002;SDS011;9634;51.040;13.794;2022-12-18T18:49:04;28.47;;;10.50;;
19002;SDS011;9634;51.040;13.794;2022-12-18T18:54:07;29.47;;;11.17;;
19002;SDS011;9634;51.040;13.794;2022-12-18T18:59:10;36.53;;;11.90;;
19002;SDS011;9634;51.040;13.794;2022-12-18T19:04:13;30.00;;;11.77;;
19002;SDS011;9634;51.040;13.794;2022-12-18T19:09:15;33.77;;;11.93;;
19002;SDS011;9634;51.040;13.794;2022-12-18T19:14:18;27.73;;;11.53;;
19002;SDS011;9634;51.040;13.794;2022-12-18T19:19:25;33.93;;;13.60;;
19002;SDS011;9634;51.040;13.794;2022-12-18T19:24:27;32.67;;;12.27;;
19002;SDS011;9634;51.040;13.794;2022-12-18T19:29:29;32.17;;;11.67;;
19002;SDS011;9634;51.040;13.794;2022-12-18T19:34:33;31.30;;;11.07;;
19002;SDS011;9634;51.040;13.794;2022-12-18T19:39:35;31.47;;;12.40;;
19002;SDS011;9634;51.040;13.794;2022-12-18T19:44:38;34.17;;;12.67;;
19002;SDS011;9634;51.040;13.794;2022-12-18T19:49:41;34.30;;;12.53;;
19002;SDS011;9634;51.040;13.794;2022-12-18T19:54:44;33.50;;;11.70;;
19002;SDS011;9634;51.040;13.794;2022-12-18T19:59:46;26.20;;;10.23;;
19002;SDS011;9634;51.040;13.794;2022-12-18T20:04:50;29.30;;;10.67;;
19002;SDS011;9634;51.040;13.794;2022-12-18T20:09:52;25.77;;;10.57;;
19002;SDS011;9634;51.040;13.794;2022-12-18T20:14:54;28.10;;;11.53;;
19002;SDS011;9634;51.040;13.794;2022-12-18T20:19:58;34.30;;;11.93;;
19002;SDS011;9634;51.040;13.794;2022-12-18T20:25:00;29.53;;;11.90;;
19002;SDS011;9634;51.040;13.794;2022-12-18T20:30:03;31.07;;;11.60;;
19002;SDS011;9634;51.040;13.794;2022-12-18T20:35:07;30.60;;;10.30;;
19002;SDS011;9634;51.040;13.794;2022-12-18T20:40:10;33.87;;;11.77;;
19002;SDS011;9634;51.040;13.794;2022-12-18T20:45:12;29.80;;;9.67;;
19002;SDS011;9634;51.040;13.794;2022-12-18T20:50:16;33.07;;;11.97;;
19002;SDS011;9634;51.040;13.794;2022-12-18T20:55:18;30.13;;;11.43;;
19002;SDS011;9634;51.040;13.794;2022-12-18T21:00:21;31.30;;;11.03;;
19002;SDS011;9634;51.040;13.794;2022-12-18T21:05:24;28.83;;;10.03;;
19002;SDS011;9634;51.040;13.794;2022-12-18T21:10:27;34.23;;;12.53;;
19002;SDS011;9634;51.040;13.794;2022-12-18T21:15:29;33.30;;;10.57;;
19002;SDS011;9634;51.040;13.794;2022-12-18T21:20:32;36.50;;;13.13;;
19002;SDS011;9634;51.040;13.794;2022-12-18T21:25:35;36.53;;;12.33;;
19002;SDS011;9634;51.040;13.794;2022-12-18T21:30:37;34.10;;;12.30;;
19002;SDS011;9634;51.040;13.794;2022-12-18T21:35:41;34.23;;;13.80;;
19002;SDS011;9634;51.040;13.794;2022-12-18T21:40:43;36.10;;;12.33;;
19002;SDS011;9634;51.040;13.794;2022-12-18T21:45:45;32.50;;;11.90;;
19002;SDS011;9634;51.040;13.794;2022-12-18T21:50:49;30.77;;;12.57;;
19002;SDS011;9634;51.040;13.794;2022-12-18T21:55:55;29.17;;;12.00;;
19002;SDS011;9634;51.040;13.794;2022-12-18T22:00:58;34.63;;;12.77;;
19002;SDS011;9634;51.040;13.794;2022-12-18T22:06:01;40.93;;;15.10;;
19002;SDS011;9634;51.040;13.794;2022-12-18T22:11:04;44.67;;;17.00;;
19002;SDS011;9634;51.040;13.794;2022-12-18T22:16:06;36.10;;;13.87;;
19002;SDS011;9634;51.040;13.794;2022-12-18T22:21:20;46.20;;;15.00;;
19002;SDS011;9634;51.040;13.794;2022-12-18T22:26:24;40.90;;;15.00;;
19002;SDS011;9634;51.040;13.794;2022-12-18T22:31:27;36.10;;;14.63;;
19002;SDS011;9634;51.040;13.794;2022-12-18T22:36:34;40.10;;;14.33;;
19002;SDS011;9634;51.040;13.794;2022-12-18T22:41:37;33.63;;;13.63;;
19002;SDS011;9634;51.040;13.794;2022-12-18T22:46:41;41.07;;;15.93;;
19002;SDS011;9634;51.040;13.794;2022-12-18T22:51:46;33.83;;;14.20;;
19002;SDS011;9634;51.040;13.794;2022-12-18T22:56:49;34.90;;;14.07;;
19002;SDS011;9634;51.040;13.794;2022-12-18T23:01:51;42.17;;;15.77;;
19002;SDS011;9634;51.040;13.794;2022-12-18T23:06:55;35.90;;;14.70;;
19002;SDS011;9634;51.040;13.794;2022-12-18T23:11:57;33.93;;;13.17;;
19002;SDS011;9634;51.040;13.794;2022-12-18T23:16:59;36.67;;;14.73;;
19002;SDS011;9634;51.040;13.794;2022-12-18T23:22:03;37.77;;;14.40;;
19002;SDS011;9634;51.040;13.794;2022-12-18T23:27:05;30.40;;;12.33;;
19002;SDS011;9634;51.040;13.794;2022-12-18T23:32:07;32.53;;;11.80;;
19002;SDS011;9634;51.040;13.794;2022-12-18T23:37:11;42.80;;;15.13;;
19002;SDS011;9634;51.040;13.794;2022-12-18T23:42:13;39.43;;;16.20;;
19002;SDS011;9634;51.040;13.794;2022-12-18T23:47:15;37.57;;;14.57;;
19002;SDS011;9634;51.040;13.794;2022-12-18T23:52:19;35.20;;;14.03;;
19002;SDS011;9634;51.040;13.794;2022-12-18T23:57:21;36.70;;;13.67;;
